sensor_id;sensor_type;location;lat;lon;timestamp;pressure;altitude;pressure_sealevel;temperature;humidity
9419;BME280;4748;50.802;7.132;2023-04-24T00:00:46;99609.78;;;13.11;100.00
9419;BME280;4748;50.802;7.132;2023-04-24T00:03:12;99600.63;;;13.07;100.00
9419;BME280;4748;50.802;7.132;2023-04-24T00:05:38;99606.81;;;13.07;100.00
9419;BME280;4748;50.802;7.132;2023-04-24T00:08:05;99604.38;;;13.06;100.00
9419;BME280;4748;50.802;7.132;2023-04-24T00:10:31;99602.53;;;13.06;100.00
9419;BME280;4748;50.802;7.132;2023-04-24T00:12:56;99603.31;;;13.07;100.00
9419;BME280;4748;50.802;7.132;2023-04-24T00:15:22;99602.53;;;13.06;100.00
9419;BME280;4748;50.802;7.132;2023-04-24T00:17:47;99598.22;;;13.05;100.00
9419;BME280;4748;50.802;7.132;2023-04-24T00:20:12;99594.72;;;13.05;100.00
9419;BME280;4748;50.802;7.132;2023-04-24T00:22:39;99587.41;;;12.95;100.00
9419;BME280;4748;50.802;7.132;2023-04-24T00:25:05;99595.47;;;12.95;100.00
9419;BME280;4748;50.802;7.132;2023-04-24T00:27:32;99591.16;;;12.94;100.00
9419;BME280;4748;50.802;7.132;2023-04-24T00:29:57;99585.78;;;12.94;100.00
9419;BME280;4748;50.802;7.132;2023-04-24T00:32:22;99577.41;;;12.86;100.00
9419;BME280;4748;50.802;7.132;2023-04-24T00:34:48;99582.03;;;12.95;100.00
9419;BME280;4748;50.802;7.132;2023-04-24T00:37:13;99577.97;;;12.88;100.00
9419;BME280;4748;50.802;7.132;2023-04-24T00:39:38;99585.78;;;12.94;100.00
9419;BME280;4748;50.802;7.132;2023-04-24T00:42:04;99577.19;;;12.92;100.00
9419;BME280;4748;50.802;7.132;2023-04-24T00:44:32;99586.63;;;12.95;100.00
9419;BME280;4748;50.802;7.132;2023-04-24T00:46:58;99576.41;;;12.92;100.00
9419;BME280;4748;50.802;7.132;2023-04-24T00:49:24;99590.16;;;13.00;100.00
9419;BME280;4748;50.802;7.132;2023-04-24T00:51:49;99583.69;;;13.01;100.00
9419;BME280;4748;50.802;7.132;2023-04-24T00:54:16;99570.81;;;13.03;100.00
9419;BME280;4748;50.802;7.132;2023-04-24T00:56:42;99579.19;;;13.12;100.00
9419;BME280;4748;50.802;7.132;2023-04-24T00:59:08;99582.88;;;13.06;100.00
9419;BME280;4748;50.802;7.132;2023-04-24T01:01:35;99575.66;;;13.11;100.00
9419;BME280;4748;50.802;7.132;2023-04-24T01:04:00;99577.28;;;13.12;100.00
9419;BME280;4748;50.802;7.132;2023-04-24T01:06:29;99578.34;;;13.11;100.00
9419;BME280;4748;50.802;7.132;2023-04-24T01:08:59;99570.59;;;13.20;100.00
9419;BME280;4748;50.802;7.132;2023-04-24T01:11:25;99567.63;;;13.16;100.00
9419;BME280;4748;50.802;7.132;2023-04-24T01:13:51;99578.09;;;13.13;100.00
9419;BME280;4748;50.802;7.132;2023-04-24T01:16:17;99571.38;;;13.10;100.00
9419;BME280;4748;50.802;7.132;2023-04-24T01:18:45;99571.91;;;13.12;100.00
9419;BME280;4748;50.802;7.132;2023-04-24T01:21:13;99569.22;;;13.12;100.00
9419;BME280;4748;50.802;7.132;2023-04-24T01:23:39;99582.63;;;13.07;100.00
9419;BME280;4748;50.802;7.132;2023-04-24T01:26:05;99590.69;;;13.07;100.00
9419;BME280;4748;50.802;7.132;2023-04-24T01:28:30;99592.31;;;13.08;100.00
9419;BME280;4748;50.802;7.132;2023-04-24T01:30:56;99598.78;;;13.12;100.00
9419;BME280;4748;50.802;7.132;2023-04-24T01:33:21;99607.59;;;12.98;100.00
9419;BME280;4748;50.802;7.132;2023-04-24T01:35:48;99620.72;;;12.94;100.00
9419;BME280;4748;50.802;7.132;2023-04-24T01:38:14;99613.22;;;13.01;100.00
9419;BME280;4748;50.802;7.132;2023-04-24T01:40:39;99622.13;;;13.02;100.00
9419;BME280;4748;50.802;7.132;2023-04-24T01:43:05;99609.94;;;12.89;100.00
9419;BME280;4748;50.802;7.132;2023-04-24T01:45:30;99620.97;;;12.88;100.00
9419;BME280;4748;50.802;7.132;2023-04-24T01:47:56;99617.22;;;12.89;100.00
9419;BME280;4748;50.802;7.132;2023-04-24T01:50:22;99619.81;;;12.79;100.00
9419;BME280;4748;50.802;7.132;2023-04-24T01:52:47;99611.97;;;12.73;100.00
9419;BME280;4748;50.802;7.132;2023-04-24T01:55:12;99610.38;;;12.76;100.00
9419;BME280;4748;50.802;7.132;2023-04-24T01:57:38;99612.53;;;12.79;100.00
9419;BME280;4748;50.802;7.132;2023-04-24T02:00:04;99604.38;;;12.65;100.00
9419;BME280;4748;50.802;7.132;2023-04-24T02:02:30;99613.53;;;12.69;100.00
9419;BME280;4748;50.802;7.132;2023-04-24T02:04:56;99604.94;;;12.67;100.00
9419;BME280;4748;50.802;7.132;2023-04-24T02:07:22;99606.72;;;12.56;100.00
9419;BME280;4748;50.802;7.132;2023-04-24T02:09:47;99607.00;;;12.55;100.00
9419;BME280;4748;50.802;7.132;2023-04-24T02:12:14;99609.13;;;12.48;100.00
9419;BME280;4748;50.802;7.132;2023-04-24T02:14:40;99614.72;;;12.46;100.00
9419;BME280;4748;50.802;7.132;2023-04-24T02:17:05;99615.47;;;12.37;100.00
9419;BME280;4748;50.802;7.132;2023-04-24T02:19:31;99621.38;;;12.39;100.00
9419;BME280;4748;50.802;7.132;2023-04-24T02:21:57;99620.78;;;12.32;100.00
9419;BME280;4748;50.802;7.132;2023-04-24T02:24:22;99634.72;;;12.29;100.00
9419;BME280;4748;50.802;7.132;2023-04-24T02:26:47;99639.47;;;12.22;100.00
9419;BME280;4748;50.802;7.132;2023-04-24T02:29:13;99634.09;;;12.22;100.00
9419;BME280;4748;50.802;7.132;2023-04-24T02:31:38;99639.69;;;12.16;100.00
9419;BME280;4748;50.802;7.132;2023-04-24T02:34:03;99645.78;;;12.06;100.00
9419;BME280;4748;50.802;7.132;2023-04-24T02:36:29;99652.41;;;11.99;100.00
9419;BME280;4748;50.802;7.132;2023-04-24T02:38:55;99657.66;;;11.89;100.00
9419;BME280;4748;50.802;7.132;2023-04-24T02:41:20;99667.41;;;11.73;100.00
9419;BME280;4748;50.802;7.132;2023-04-24T02:43:46;99665.44;;;11.64;100.00
9419;BME280;4748;50.802;7.132;2023-04-24T02:46:11;99674.69;;;11.52;100.00
9419;BME280;4748;50.802;7.132;2023-04-24T02:48:36;99669.16;;;11.42;100.00
9419;BME280;4748;50.802;7.132;2023-04-24T02:51:02;99674.53;;;11.42;100.00
9419;BME280;4748;50.802;7.132;2023-04-24T02:53:27;99682.09;;;11.28;100.00
9419;BME280;4748;50.802;7.132;2023-04-24T02:55:54;99675.38;;;11.26;100.00
9419;BME280;4748;50.802;7.132;2023-04-24T02:58:20;99683.28;;;11.16;100.00
9419;BME280;4748;50.802;7.132;2023-04-24T03:00:46;99685.78;;;11.22;100.00
9419;BME280;4748;50.802;7.132;2023-04-24T03:03:12;99683.59;;;11.19;100.00
9419;BME280;4748;50.802;7.132;2023-04-24T03:05:37;99688.69;;;11.21;100.00
9419;BME280;4748;50.802;7.132;2023-04-24T03:08:03;99696.25;;;11.24;100.00
9419;BME280;4748;50.802;7.132;2023-04-24T03:10:28;99696.31;;;11.29;100.00
9419;BME280;4748;50.802;7.132;2023-04-24T03:12:53;99699.50;;;11.26;100.00
9419;BME280;4748;50.802;7.132;2023-04-24T03:15:20;99710.94;;;11.21;100.00
9419;BME280;4748;50.802;7.132;2023-04-24T03:17:45;99709.00;;;11.17;100.00
9419;BME280;4748;50.802;7.132;2023-04-24T03:20:10;99708.56;;;11.04;100.00
9419;BME280;4748;50.802;7.132;2023-04-24T03:22:36;99699.44;;;11.05;100.00
9419;BME280;4748;50.802;7.132;2023-04-24T03:25:01;99695.97;;;11.04;100.00
9419;BME280;4748;50.802;7.132;2023-04-24T03:27:27;99691.19;;;10.90;100.00
9419;BME280;4748;50.802;7.132;2023-04-24T03:29:52;99690.31;;;10.84;100.00
9419;BME280;4748;50.802;7.132;2023-04-24T03:32:23;99697.69;;;10.77;100.00
9419;BME280;4748;50.802;7.132;2023-04-24T03:34:49;99698.03;;;10.65;100.00
9419;BME280;4748;50.802;7.132;2023-04-24T03:37:18;99710.44;;;10.70;100.00
9419;BME280;4748;50.802;7.132;2023-04-24T03:39:43;99706.63;;;10.50;100.00
9419;BME280;4748;50.802;7.132;2023-04-24T03:42:08;99706.75;;;10.44;100.00
9419;BME280;4748;50.802;7.132;2023-04-24T03:44:35;99713.91;;;10.55;100.00
9419;BME280;4748;50.802;7.132;2023-04-24T03:47:00;99714.88;;;10.49;100.00
9419;BME280;4748;50.802;7.132;2023-04-24T03:49:25;99709.06;;;10.52;100.00
9419;BME280;4748;50.802;7.132;2023-04-24T03:51:51;99705.09;;;10.54;100.00
9419;BME280;4748;50.802;7.132;2023-04-24T03:54:17;99699.00;;;10.59;100.00
9419;BME280;4748;50.802;7.132;2023-04-24T03:56:42;99696.16;;;10.49;100.00
9419;BME280;4748;50.802;7.132;2023-04-24T03:59:08;99692.69;;;10.48;100.00
9419;BME280;4748;50.802;7.132;2023-04-24T04:01:33;99693.88;;;10.41;100.00
9419;BME280;4748;50.802;7.132;2023-04-24T04:04:02;99700.44;;;10.33;100.00
9419;BME280;4748;50.802;7.132;2023-04-24T04:06:27;99704.97;;;10.33;100.00
9419;BME280;4748;50.802;7.132;2023-04-24T04:08:53;99711.56;;;10.25;100.00
9419;BME280;4748;50.802;7.132;2023-04-24T04:11:18;99712.34;;;10.26;100.00
9419;BME280;4748;50.802;7.132;2023-04-24T04:13:44;99713.38;;;10.25;100.00
9419;BME280;4748;50.802;7.132;2023-04-24T04:16:12;99713.50;;;10.30;100.00
9419;BME280;4748;50.802;7.132;2023-04-24T04:18:38;99714.59;;;10.34;100.00
9419;BME280;4748;50.802;7.132;2023-04-24T04:21:03;99711.47;;;10.37;100.00
9419;BME280;4748;50.802;7.132;2023-04-24T04:23:28;99708.06;;;10.41;100.00
9419;BME280;4748;50.802;7.132;2023-04-24T04:25:54;99719.94;;;10.45;100.00
9419;BME280;4748;50.802;7.132;2023-04-24T04:28:20;99717.63;;;10.54;100.00
9419;BME280;4748;50.802;7.132;2023-04-24T04:30:46;99718.88;;;10.63;100.00
9419;BME280;4748;50.802;7.132;2023-04-24T04:33:12;99719.19;;;10.50;100.00
9419;BME280;4748;50.802;7.132;2023-04-24T04:35:37;99717.63;;;10.54;100.00
9419;BME280;4748;50.802;7.132;2023-04-24T04:38:02;99717.97;;;10.57;100.00
9419;BME280;4748;50.802;7.132;2023-04-24T04:40:28;99723.09;;;10.59;100.00
9419;BME280;4748;50.802;7.132;2023-04-24T04:42:53;99726.66;;;10.64;100.00
9419;BME280;4748;50.802;7.132;2023-04-24T04:45:19;99717.81;;;10.64;100.00
9419;BME280;4748;50.802;7.132;2023-04-24T04:47:45;99727.56;;;10.69;100.00
9419;BME280;4748;50.802;7.132;2023-04-24T04:50:11;99730.13;;;10.65;100.00
9419;BME280;4748;50.802;7.132;2023-04-24T04:52:36;99736.88;;;10.67;100.00
9419;BME280;4748;50.802;7.132;2023-04-24T04:55:02;99739.47;;;10.78;100.00
9419;BME280;4748;50.802;7.132;2023-04-24T04:57:27;99738.56;;;10.73;100.00
9419;BME280;4748;50.802;7.132;2023-04-24T04:59:53;99740.38;;;10.84;100.00
9419;BME280;4748;50.802;7.132;2023-04-24T05:02:18;99743.13;;;10.89;100.00
9419;BME280;4748;50.802;7.132;2023-04-24T05:04:44;99732.25;;;10.79;100.00
9419;BME280;4748;50.802;7.132;2023-04-24T05:07:10;99730.81;;;10.88;100.00
9419;BME280;4748;50.802;7.132;2023-04-24T05:09:35;99731.75;;;10.98;100.00
9419;BME280;4748;50.802;7.132;2023-04-24T05:12:01;99735.97;;;10.94;100.00
9419;BME280;4748;50.802;7.132;2023-04-24T05:14:27;99725.84;;;10.96;100.00
9419;BME280;4748;50.802;7.132;2023-04-24T05:16:52;99739.78;;;10.98;100.00
9419;BME280;4748;50.802;7.132;2023-04-24T05:19:18;99741.44;;;10.99;100.00
9419;BME280;4748;50.802;7.132;2023-04-24T05:21:43;99749.13;;;10.96;100.00
9419;BME280;4748;50.802;7.132;2023-04-24T05:24:08;99752.38;;;10.98;100.00
9419;BME280;4748;50.802;7.132;2023-04-24T05:26:34;99752.78;;;11.06;100.00
9419;BME280;4748;50.802;7.132;2023-04-24T05:29:01;99759.50;;;11.09;100.00
9419;BME280;4748;50.802;7.132;2023-04-24T05:31:26;99760.88;;;11.11;100.00
9419;BME280;4748;50.802;7.132;2023-04-24T05:33:51;99755.47;;;11.06;100.00
9419;BME280;4748;50.802;7.132;2023-04-24T05:36:17;99758.69;;;11.08;100.00
9419;BME280;4748;50.802;7.132;2023-04-24T05:38:42;99760.09;;;11.11;100.00
9419;BME280;4748;50.802;7.132;2023-04-24T05:41:08;99760.00;;;11.06;100.00
9419;BME280;4748;50.802;7.132;2023-04-24T05:43:33;99768.28;;;11.04;100.00
9419;BME280;4748;50.802;7.132;2023-04-24T05:45:58;99764.13;;;11.13;100.00
9419;BME280;4748;50.802;7.132;2023-04-24T05:48:24;99765.19;;;11.12;100.00
9419;BME280;4748;50.802;7.132;2023-04-24T05:50:49;99773.56;;;10.99;100.00
9419;BME280;4748;50.802;7.132;2023-04-24T05:53:15;99768.38;;;11.09;100.00
9419;BME280;4748;50.802;7.132;2023-04-24T05:55:40;99775.06;;;11.12;100.00
9419;BME280;4748;50.802;7.132;2023-04-24T05:58:06;99772.00;;;11.03;100.00
9419;BME280;4748;50.802;7.132;2023-04-24T06:00:31;99771.13;;;10.98;100.00
9419;BME280;4748;50.802;7.132;2023-04-24T06:02:57;99781.75;;;11.09;100.00
9419;BME280;4748;50.802;7.132;2023-04-24T06:05:24;99773.63;;;11.04;100.00
9419;BME280;4748;50.802;7.132;2023-04-24T06:07:49;99769.66;;;11.07;100.00
9419;BME280;4748;50.802;7.132;2023-04-24T06:10:15;99773.97;;;11.08;100.00
9419;BME280;4748;50.802;7.132;2023-04-24T06:12:40;99778.34;;;11.14;100.00
9419;BME280;4748;50.802;7.132;2023-04-24T06:15:06;99782.06;;;11.13;100.00
9419;BME280;4748;50.802;7.132;2023-04-24T06:17:32;99783.22;;;11.17;100.00
9419;BME280;4748;50.802;7.132;2023-04-24T06:19:57;99781.41;;;11.22;100.00
9419;BME280;4748;50.802;7.132;2023-04-24T06:22:23;99783.03;;;11.23;100.00
9419;BME280;4748;50.802;7.132;2023-04-24T06:24:48;99782.63;;;11.15;100.00
9419;BME280;4748;50.802;7.132;2023-04-24T06:27:13;99786.28;;;11.25;100.00
9419;BME280;4748;50.802;7.132;2023-04-24T06:29:39;99790.66;;;11.15;100.00
9419;BME280;4748;50.802;7.132;2023-04-24T06:32:04;99801.97;;;11.17;100.00
9419;BME280;4748;50.802;7.132;2023-04-24T06:34:30;99792.94;;;11.22;100.00
9419;BME280;4748;50.802;7.132;2023-04-24T06:36:56;99795.94;;;11.26;100.00
9419;BME280;4748;50.802;7.132;2023-04-24T06:39:21;99799.19;;;11.28;100.00
9419;BME280;4748;50.802;7.132;2023-04-24T06:41:47;99792.69;;;11.24;100.00
9419;BME280;4748;50.802;7.132;2023-04-24T06:44:12;99793.03;;;11.11;100.00
9419;BME280;4748;50.802;7.132;2023-04-24T06:46:40;99791.25;;;11.17;100.00
9419;BME280;4748;50.802;7.132;2023-04-24T06:49:06;99798.94;;;11.13;100.00
9419;BME280;4748;50.802;7.132;2023-04-24T06:51:31;99806.19;;;11.13;100.00
9419;BME280;4748;50.802;7.132;2023-04-24T06:53:58;99797.16;;;11.18;100.00
9419;BME280;4748;50.802;7.132;2023-04-24T06:56:23;99807.31;;;11.17;100.00
9419;BME280;4748;50.802;7.132;2023-04-24T06:58:48;99803.69;;;11.06;100.00
9419;BME280;4748;50.802;7.132;2023-04-24T07:01:14;99806.25;;;11.01;100.00
9419;BME280;4748;50.802;7.132;2023-04-24T07:03:39;99800.91;;;11.01;100.00
9419;BME280;4748;50.802;7.132;2023-04-24T07:06:05;99806.09;;;11.08;100.00
9419;BME280;4748;50.802;7.132;2023-04-24T07:08:32;99805.88;;;11.09;100.00
9419;BME280;4748;50.802;7.132;2023-04-24T07:10:58;99806.34;;;11.06;100.00
9419;BME280;4748;50.802;7.132;2023-04-24T07:13:24;99803.19;;;11.09;100.00
9419;BME280;4748;50.802;7.132;2023-04-24T07:15:49;99813.06;;;10.92;100.00
9419;BME280;4748;50.802;7.132;2023-04-24T07:18:16;99806.75;;;10.98;100.00
9419;BME280;4748;50.802;7.132;2023-04-24T07:20:42;99807.22;;;10.95;100.00
9419;BME280;4748;50.802;7.132;2023-04-24T07:23:07;99802.91;;;10.94;100.00
9419;BME280;4748;50.802;7.132;2023-04-24T07:25:33;99808.69;;;11.03;100.00
9419;BME280;4748;50.802;7.132;2023-04-24T07:27:58;99818.91;;;11.06;100.00
9419;BME280;4748;50.802;7.132;2023-04-24T07:30:24;99809.72;;;11.02;100.00
9419;BME280;4748;50.802;7.132;2023-04-24T07:32:49;99828.34;;;11.08;100.00
9419;BME280;4748;50.802;7.132;2023-04-24T07:35:15;99832.97;;;11.13;100.00
9419;BME280;4748;50.802;7.132;2023-04-24T07:37:40;99840.03;;;11.02;100.00
9419;BME280;4748;50.802;7.132;2023-04-24T07:40:13;99838.66;;;11.16;100.00
9419;BME280;4748;50.802;7.132;2023-04-24T07:42:39;99838.00;;;11.09;100.00
9419;BME280;4748;50.802;7.132;2023-04-24T07:45:05;99843.03;;;11.06;100.00
9419;BME280;4748;50.802;7.132;2023-04-24T07:47:31;99849.22;;;11.06;100.00
9419;BME280;4748;50.802;7.132;2023-04-24T07:49:56;99847.41;;;10.95;100.00
9419;BME280;4748;50.802;7.132;2023-04-24T07:52:22;99847.72;;;10.99;100.00
9419;BME280;4748;50.802;7.132;2023-04-24T07:54:48;99863.53;;;11.00;100.00
9419;BME280;4748;50.802;7.132;2023-04-24T07:57:14;99869.81;;;11.06;100.00
9419;BME280;4748;50.802;7.132;2023-04-24T07:59:40;99867.97;;;11.06;100.00
9419;BME280;4748;50.802;7.132;2023-04-24T08:02:05;99878.69;;;10.95;100.00
9419;BME280;4748;50.802;7.132;2023-04-24T08:04:31;99886.19;;;10.93;100.00
9419;BME280;4748;50.802;7.132;2023-04-24T08:06:56;99886.53;;;10.96;100.00
9419;BME280;4748;50.802;7.132;2023-04-24T08:09:22;99882.84;;;10.86;100.00
9419;BME280;4748;50.802;7.132;2023-04-24T08:11:47;99890.06;;;10.85;100.00
9419;BME280;4748;50.802;7.132;2023-04-24T08:14:13;99895.66;;;10.84;100.00
9419;BME280;4748;50.802;7.132;2023-04-24T08:16:40;99900.78;;;10.85;100.00
9419;BME280;4748;50.802;7.132;2023-04-24T08:19:05;99904.41;;;10.52;100.00
9419;BME280;4748;50.802;7.132;2023-04-24T08:21:31;99903.00;;;10.49;100.00
9419;BME280;4748;50.802;7.132;2023-04-24T08:23:56;99911.09;;;10.66;100.00
9419;BME280;4748;50.802;7.132;2023-04-24T08:26:22;99914.28;;;10.51;100.00
9419;BME280;4748;50.802;7.132;2023-04-24T08:28:47;99913.63;;;10.44;100.00
9419;BME280;4748;50.802;7.132;2023-04-24T08:31:13;99922.34;;;10.40;100.00
9419;BME280;4748;50.802;7.132;2023-04-24T08:33:38;99923.50;;;10.32;100.00
9419;BME280;4748;50.802;7.132;2023-04-24T08:36:04;99918.31;;;10.26;100.00
9419;BME280;4748;50.802;7.132;2023-04-24T08:38:30;99937.28;;;10.24;100.00
9419;BME280;4748;50.802;7.132;2023-04-24T08:40:57;99948.91;;;10.18;100.00
9419;BME280;4748;50.802;7.132;2023-04-24T08:43:23;99955.06;;;10.08;100.00
9419;BME280;4748;50.802;7.132;2023-04-24T08:45:50;99969.38;;;10.02;100.00
9419;BME280;4748;50.802;7.132;2023-04-24T08:48:16;99964.78;;;9.68;100.00
9419;BME280;4748;50.802;7.132;2023-04-24T08:50:42;99965.97;;;9.61;100.00
9419;BME280;4748;50.802;7.132;2023-04-24T08:53:08;99976.72;;;9.43;100.00
9419;BME280;4748;50.802;7.132;2023-04-24T08:55:34;99969.81;;;9.24;100.00
9419;BME280;4748;50.802;7.132;2023-04-24T08:57:59;99980.00;;;9.15;100.00
9419;BME280;4748;50.802;7.132;2023-04-24T09:00:26;99979.06;;;9.10;100.00
9419;BME280;4748;50.802;7.132;2023-04-24T09:02:53;99976.03;;;9.07;100.00
9419;BME280;4748;50.802;7.132;2023-04-24T09:05:20;99986.56;;;9.02;100.00
9419;BME280;4748;50.802;7.132;2023-04-24T09:07:49;99975.22;;;9.06;100.00
9419;BME280;4748;50.802;7.132;2023-04-24T09:10:18;99990.50;;;8.99;100.00
9419;BME280;4748;50.802;7.132;2023-04-24T09:12:43;99990.66;;;9.04;100.00
9419;BME280;4748;50.802;7.132;2023-04-24T09:15:09;99985.16;;;8.99;100.00
9419;BME280;4748;50.802;7.132;2023-04-24T09:17:36;99997.00;;;9.03;100.00
9419;BME280;4748;50.802;7.132;2023-04-24T09:20:01;99997.34;;;8.95;100.00
9419;BME280;4748;50.802;7.132;2023-04-24T09:22:30;100011.84;;;8.99;100.00
9419;BME280;4748;50.802;7.132;2023-04-24T09:25:06;100009.09;;;9.06;100.00
9419;BME280;4748;50.802;7.132;2023-04-24T09:27:33;100007.25;;;9.06;100.00
9419;BME280;4748;50.802;7.132;2023-04-24T09:29:59;100025.13;;;9.06;100.00
9419;BME280;4748;50.802;7.132;2023-04-24T09:32:25;100016.44;;;9.10;100.00
9419;BME280;4748;50.802;7.132;2023-04-24T09:35:09;100015.06;;;9.19;100.00
9419;BME280;4748;50.802;7.132;2023-04-24T09:37:39;100021.84;;;9.33;100.00
9419;BME280;4748;50.802;7.132;2023-04-24T09:40:15;100028.06;;;9.45;100.00
9419;BME280;4748;50.802;7.132;2023-04-24T09:42:57;100027.66;;;9.59;100.00
9419;BME280;4748;50.802;7.132;2023-04-24T09:45:37;100041.69;;;9.55;100.00
9419;BME280;4748;50.802;7.132;2023-04-24T09:48:03;100034.25;;;9.57;100.00
9419;BME280;4748;50.802;7.132;2023-04-24T09:50:30;100043.53;;;9.54;100.00
9419;BME280;4748;50.802;7.132;2023-04-24T09:53:02;100040.28;;;9.52;100.00
9419;BME280;4748;50.802;7.132;2023-04-24T09:55:27;100050.84;;;9.59;100.00
9419;BME280;4748;50.802;7.132;2023-04-24T09:58:00;100057.72;;;9.55;100.00
9419;BME280;4748;50.802;7.132;2023-04-24T10:00:28;100053.41;;;9.54;100.00
9419;BME280;4748;50.802;7.132;2023-04-24T10:02:58;100057.16;;;9.64;100.00
9419;BME280;4748;50.802;7.132;2023-04-24T10:05:26;100064.13;;;9.65;100.00
9419;BME280;4748;50.802;7.132;2023-04-24T10:07:56;100063.22;;;9.71;100.00
9419;BME280;4748;50.802;7.132;2023-04-24T10:10:22;100069.13;;;9.73;100.00
9419;BME280;4748;50.802;7.132;2023-04-24T10:12:47;100064.94;;;9.65;100.00
9419;BME280;4748;50.802;7.132;2023-04-24T10:15:14;100078.56;;;9.75;100.00
9419;BME280;4748;50.802;7.132;2023-04-24T10:17:41;100074.41;;;9.79;100.00
9419;BME280;4748;50.802;7.132;2023-04-24T10:20:08;100074.97;;;9.81;100.00
9419;BME280;4748;50.802;7.132;2023-04-24T10:22:34;100080.22;;;9.88;100.00
9419;BME280;4748;50.802;7.132;2023-04-24T10:25:00;100081.31;;;9.98;100.00
9419;BME280;4748;50.802;7.132;2023-04-24T10:27:29;100086.66;;;9.98;100.00
9419;BME280;4748;50.802;7.132;2023-04-24T10:29:56;100080.75;;;10.08;100.00
9419;BME280;4748;50.802;7.132;2023-04-24T10:32:21;100084.25;;;10.19;100.00
9419;BME280;4748;50.802;7.132;2023-04-24T10:34:47;100096.25;;;10.28;100.00
9419;BME280;4748;50.802;7.132;2023-04-24T10:37:13;100100.06;;;10.32;100.00
9419;BME280;4748;50.802;7.132;2023-04-24T10:39:42;100094.88;;;10.37;100.00
9419;BME280;4748;50.802;7.132;2023-04-24T10:42:15;100106.75;;;10.41;100.00
9419;BME280;4748;50.802;7.132;2023-04-24T10:44:40;100103.69;;;10.49;100.00
9419;BME280;4748;50.802;7.132;2023-04-24T10:47:12;100114.16;;;10.62;100.00
9419;BME280;4748;50.802;7.132;2023-04-24T10:49:38;100119.50;;;10.85;100.00
9419;BME280;4748;50.802;7.132;2023-04-24T10:52:04;100118.09;;;11.05;100.00
9419;BME280;4748;50.802;7.132;2023-04-24T10:54:44;100127.97;;;11.05;100.00
9419;BME280;4748;50.802;7.132;2023-04-24T11:00:20;100137.16;;;11.20;100.00
9419;BME280;4748;50.802;7.132;2023-04-24T11:02:47;100134.81;;;11.35;100.00
9419;BME280;4748;50.802;7.132;2023-04-24T11:05:19;100141.44;;;11.32;100.00
9419;BME280;4748;50.802;7.132;2023-04-24T11:08:16;100141.16;;;11.45;100.00
9419;BME280;4748;50.802;7.132;2023-04-24T11:10:50;100139.31;;;11.34;100.00
9419;BME280;4748;50.802;7.132;2023-04-24T11:13:22;100146.69;;;11.39;100.00
9419;BME280;4748;50.802;7.132;2023-04-24T11:30:02;100158.84;;;11.07;100.00
9419;BME280;4748;50.802;7.132;2023-04-24T11:35:03;100158.28;;;10.82;100.00
9419;BME280;4748;50.802;7.132;2023-04-24T11:37:37;100169.56;;;10.84;100.00
9419;BME280;4748;50.802;7.132;2023-04-24T11:40:03;100173.28;;;10.83;100.00
9419;BME280;4748;50.802;7.132;2023-04-24T11:42:43;100170.41;;;10.96;100.00
9419;BME280;4748;50.802;7.132;2023-04-24T11:45:13;100170.84;;;10.93;100.00
9419;BME280;4748;50.802;7.132;2023-04-24T11:47:42;100179.47;;;10.95;100.00
9419;BME280;4748;50.802;7.132;2023-04-24T11:50:11;100166.31;;;11.05;100.00
9419;BME280;4748;50.802;7.132;2023-04-24T11:52:38;100183.56;;;10.98;100.00
9419;BME280;4748;50.802;7.132;2023-04-24T11:55:07;100177.25;;;11.04;100.00
9419;BME280;4748;50.802;7.132;2023-04-24T11:57:32;100181.56;;;11.16;100.00
9419;BME280;4748;50.802;7.132;2023-04-24T12:00:03;100183.28;;;11.22;100.00
9419;BME280;4748;50.802;7.132;2023-04-24T12:02:30;100183.13;;;11.51;100.00
9419;BME280;4748;50.802;7.132;2023-04-24T12:04:56;100191.03;;;11.69;100.00
9419;BME280;4748;50.802;7.132;2023-04-24T12:07:22;100189.34;;;11.79;100.00
9419;BME280;4748;50.802;7.132;2023-04-24T12:09:55;100197.78;;;11.99;100.00
9419;BME280;4748;50.802;7.132;2023-04-24T12:12:24;100192.09;;;12.40;100.00
9419;BME280;4748;50.802;7.132;2023-04-24T12:14:57;100209.81;;;12.41;100.00
9419;BME280;4748;50.802;7.132;2023-04-24T12:17:25;100209.59;;;12.59;100.00
9419;BME280;4748;50.802;7.132;2023-04-24T12:19:51;100212.09;;;12.81;100.00
9419;BME280;4748;50.802;7.132;2023-04-24T12:22:16;100211.66;;;12.84;100.00
9419;BME280;4748;50.802;7.132;2023-04-24T12:25:03;100213.75;;;12.82;100.00
9419;BME280;4748;50.802;7.132;2023-04-24T12:27:33;100203.56;;;12.68;100.00
9419;BME280;4748;50.802;7.132;2023-04-24T12:30:01;100215.13;;;12.69;100.00
9419;BME280;4748;50.802;7.132;2023-04-24T12:32:27;100216.75;;;12.70;100.00
9419;BME280;4748;50.802;7.132;2023-04-24T12:34:53;100217.56;;;12.70;100.00
9419;BME280;4748;50.802;7.132;2023-04-24T12:37:19;100211.72;;;12.57;100.00
9419;BME280;4748;50.802;7.132;2023-04-24T12:40:01;100214.16;;;12.58;100.00
9419;BME280;4748;50.802;7.132;2023-04-24T12:42:31;100220.75;;;12.51;100.00
9419;BME280;4748;50.802;7.132;2023-04-24T12:45:01;100228.44;;;12.47;100.00
9419;BME280;4748;50.802;7.132;2023-04-24T12:47:28;100229.44;;;12.41;100.00
9419;BME280;4748;50.802;7.132;2023-04-24T12:49:54;100221.13;;;12.43;100.00
9419;BME280;4748;50.802;7.132;2023-04-24T12:52:21;100225.44;;;12.44;100.00
9419;BME280;4748;50.802;7.132;2023-04-24T12:54:46;100215.13;;;12.69;100.00
9419;BME280;4748;50.802;7.132;2023-04-24T12:57:12;100228.91;;;12.88;100.00
9419;BME280;4748;50.802;7.132;2023-04-24T12:59:37;100231.44;;;12.95;100.00
9419;BME280;4748;50.802;7.132;2023-04-24T13:02:04;100224.34;;;13.05;100.00
9419;BME280;4748;50.802;7.132;2023-04-24T13:04:29;100224.34;;;13.05;100.00
9419;BME280;4748;50.802;7.132;2023-04-24T13:06:55;100227.28;;;13.20;100.00
9419;BME280;4748;50.802;7.132;2023-04-24T13:09:20;100225.00;;;13.12;100.00
9419;BME280;4748;50.802;7.132;2023-04-24T13:11:45;100211.53;;;13.12;100.00
9419;BME280;4748;50.802;7.132;2023-04-24T13:14:11;100220.44;;;13.34;100.00
9419;BME280;4748;50.802;7.132;2023-04-24T13:16:36;100223.72;;;13.36;100.00
9419;BME280;4748;50.802;7.132;2023-04-24T13:19:01;100227.34;;;13.46;100.00
9419;BME280;4748;50.802;7.132;2023-04-24T13:21:27;100224.25;;;13.54;100.00
9419;BME280;4748;50.802;7.132;2023-04-24T13:23:52;100229.53;;;13.49;100.00
9419;BME280;4748;50.802;7.132;2023-04-24T13:26:18;100231.38;;;13.65;100.00